Time;durP1;ratioP1;P1;durP2;ratioP2;P2;SDS_P1;SDS_P2;PMS_P1;PMS_P2;Temp;Humidity;BMP_temperature;BMP_pressure;BME280_temperature;BME280_humidity;BME280_pressure;Samples;Min_cycle;Max_cycle;Signal;HPM_P1;HPM_P2
2023/03/27 00:00:27;;;;;;;1.95;1.85;;;6.60;99.90;;;;;;5039820;28;20176;-75
2023/03/27 00:02:53;;;;;;;2.78;2.00;;;6.60;99.90;;;;;;5043103;28;20207;-75
2023/03/27 00:05:19;;;;;;;2.00;1.90;;;6.70;99.90;;;;;;5032606;28;20188;-75
2023/03/27 00:07:54;;;;;;;1.83;1.80;;;6.60;99.90;;;;;;5036175;28;20215;-75
2023/03/27 00:10:21;;;;;;;2.03;1.75;;;6.60;99.90;;;;;;5038603;28;20541;-75
2023/03/27 00:12:47;;;;;;;1.92;1.83;;;6.70;99.90;;;;;;5033133;28;20201;-75
2023/03/27 00:15:16;;;;;;;2.13;1.70;;;6.70;99.90;;;;;;5043777;28;20252;-75
2023/03/27 00:17:46;;;;;;;1.80;1.70;;;6.70;99.90;;;;;;5046455;28;20181;-75
2023/03/27 00:20:14;;;;;;;2.08;1.98;;;6.60;99.90;;;;;;5035848;28;20569;-75
2023/03/27 00:22:39;;;;;;;1.80;1.70;;;6.60;99.90;;;;;;5036406;28;20295;-75
2023/03/27 00:25:06;;;;;;;2.72;2.53;;;6.60;99.90;;;;;;5033943;28;20255;-75
2023/03/27 00:27:31;;;;;;;3.55;2.05;;;6.60;99.90;;;;;;5049673;28;20638;-74
2023/03/27 00:29:57;;;;;;;2.45;2.20;;;6.50;99.90;;;;;;5039999;28;20173;-75
2023/03/27 00:32:22;;;;;;;2.17;1.80;;;6.50;99.90;;;;;;5040973;28;20226;-74
2023/03/27 00:34:48;;;;;;;3.50;2.17;;;6.40;99.90;;;;;;5045360;28;20267;-75
2023/03/27 00:37:13;;;;;;;3.67;2.40;;;6.40;99.90;;;;;;5046136;28;20651;-76
2023/03/27 00:39:40;;;;;;;2.40;1.80;;;6.40;99.90;;;;;;5040414;28;20188;-75
2023/03/27 00:42:12;;;;;;;2.22;2.13;;;6.30;99.90;;;;;;5023447;28;20581;-74
2023/03/27 00:44:38;;;;;;;3.38;2.15;;;6.20;99.90;;;;;;5045716;28;20214;-75
2023/03/27 00:47:04;;;;;;;2.58;2.47;;;6.20;99.90;;;;;;5044678;28;20652;-75
2023/03/27 00:49:35;;;;;;;3.15;2.10;;;6.30;99.90;;;;;;5043733;28;20180;-75
2023/03/27 00:52:03;;;;;;;2.50;2.10;;;6.20;99.90;;;;;;5045106;28;20192;-75
2023/03/27 00:54:33;;;;;;;4.07;2.20;;;6.20;99.90;;;;;;5041606;28;20203;-74
2023/03/27 00:57:03;;;;;;;2.67;2.47;;;6.30;99.90;;;;;;5037344;28;20270;-75
2023/03/27 00:59:35;;;;;;;4.47;2.80;;;6.30;99.90;;;;;;5031678;28;20877;-75
2023/03/27 01:02:05;;;;;;;3.83;3.05;;;6.30;99.90;;;;;;5049550;28;20223;-74
2023/03/27 01:04:34;;;;;;;4.40;2.13;;;6.30;99.90;;;;;;5052977;28;20200;-74
2023/03/27 01:07:02;;;;;;;2.67;2.50;;;6.30;99.90;;;;;;5042867;28;20304;-75
2023/03/27 01:09:28;;;;;;;1.85;1.65;;;6.30;99.90;;;;;;5032277;28;20545;-74
2023/03/27 01:12:12;;;;;;;2.47;2.20;;;6.30;99.90;;;;;;5052097;28;20192;-74
2023/03/27 01:14:50;;;;;;;2.53;2.35;;;6.40;99.90;;;;;;5029280;28;20183;-74
2023/03/27 01:17:19;;;;;;;2.42;2.22;;;6.40;99.90;;;;;;5048773;28;20191;-75
2023/03/27 01:19:59;;;;;;;2.28;2.08;;;6.30;99.90;;;;;;5036079;28;20257;-75
2023/03/27 01:22:53;;;;;;;3.20;2.83;;;6.30;99.90;;;;;;5039729;28;20680;-75
2023/03/27 01:25:41;;;;;;;2.33;2.22;;;6.30;99.90;;;;;;5043288;28;20188;-74
2023/03/27 01:28:25;;;;;;;3.00;2.67;;;6.30;99.90;;;;;;5046716;28;20281;-74
2023/03/27 01:31:20;;;;;;;2.08;1.75;;;6.30;99.90;;;;;;5028334;28;20183;-75
2023/03/27 01:33:56;;;;;;;2.90;2.35;;;6.20;99.90;;;;;;5042726;28;20306;-74
2023/03/27 01:36:22;;;;;;;2.45;2.35;;;6.20;99.90;;;;;;5042827;28;20173;-74
2023/03/27 01:39:09;;;;;;;2.58;2.40;;;6.20;99.90;;;;;;5032620;28;20187;-74
2023/03/27 01:41:54;;;;;;;2.70;2.50;;;6.30;99.90;;;;;;5038377;28;20196;-74
2023/03/27 01:44:44;;;;;;;2.92;2.25;;;6.30;99.90;;;;;;5041205;28;20212;-75
2023/03/27 01:47:29;;;;;;;2.85;2.45;;;6.30;99.90;;;;;;5026369;28;20187;-75
2023/03/27 01:50:13;;;;;;;2.30;2.20;;;6.20;99.90;;;;;;5035797;28;20520;-75
2023/03/27 01:52:43;;;;;;;2.25;2.15;;;6.20;99.90;;;;;;5036813;28;20199;-75
2023/03/27 01:55:17;;;;;;;3.20;3.00;;;6.20;99.90;;;;;;5032701;28;20188;-76
2023/03/27 01:58:02;;;;;;;2.90;2.70;;;6.10;99.90;;;;;;5039039;28;20708;-76
2023/03/27 02:00:29;;;;;;;2.60;2.50;;;6.10;99.90;;;;;;5033422;28;20191;-78
2023/03/27 02:03:18;;;;;;;2.85;2.65;;;6.10;99.90;;;;;;5041318;28;20211;-76
2023/03/27 02:05:57;;;;;;;3.30;2.50;;;6.10;99.90;;;;;;5036957;28;20266;-75
2023/03/27 02:08:26;;;;;;;3.25;2.97;;;6.10;99.90;;;;;;5038604;28;20171;-75
2023/03/27 02:10:56;;;;;;;2.40;2.20;;;6.20;99.90;;;;;;5039253;28;20183;-75
2023/03/27 02:13:30;;;;;;;3.60;2.25;;;6.30;99.90;;;;;;5036325;28;20203;-75
2023/03/27 02:15:58;;;;;;;2.85;2.65;;;6.30;99.90;;;;;;5035797;28;20181;-77
2023/03/27 02:18:38;;;;;;;2.88;2.65;;;6.30;99.90;;;;;;5038861;28;20703;-78
2023/03/27 02:21:05;;;;;;;2.25;2.15;;;6.30;99.90;;;;;;5027425;28;20701;-77
2023/03/27 02:23:31;;;;;;;2.63;2.42;;;6.40;99.90;;;;;;5033885;28;20204;-78
2023/03/27 02:25:58;;;;;;;3.47;2.63;;;6.40;99.90;;;;;;5029541;28;20177;-76
2023/03/27 02:28:35;;;;;;;2.78;2.58;;;6.30;99.90;;;;;;5035445;28;20176;-76
2023/03/27 02:31:27;;;;;;;3.10;2.90;;;6.20;99.90;;;;;;5037473;28;20179;-76
2023/03/27 02:34:34;;;;;;;2.65;2.53;;;6.20;99.90;;;;;;5032726;28;20172;-77
2023/03/27 02:37:27;;;;;;;2.70;2.35;;;6.20;99.90;;;;;;5022717;28;20211;-75
2023/03/27 02:40:03;;;;;;;2.80;2.60;;;6.20;99.90;;;;;;5038190;28;20189;-75
2023/03/27 02:42:42;;;;;;;2.60;2.40;;;6.20;99.90;;;;;;5038935;28;20192;-75
2023/03/27 02:45:18;;;;;;;2.95;2.75;;;6.20;99.90;;;;;;5033681;28;20180;-76
2023/03/27 02:47:53;;;;;;;2.40;2.20;;;6.20;99.90;;;;;;5028572;28;20183;-75
2023/03/27 02:50:45;;;;;;;3.22;2.97;;;6.20;99.90;;;;;;5035378;28;20187;-76
2023/03/27 02:53:15;;;;;;;2.88;2.67;;;6.20;99.90;;;;;;5019749;28;20216;-76
2023/03/27 02:55:46;;;;;;;3.38;2.03;;;6.20;99.90;;;;;;5040767;28;20177;-76
2023/03/27 02:58:16;;;;;;;3.42;3.08;;;6.30;99.90;;;;;;5043340;28;20674;-74
2023/03/27 03:00:47;;;;;;;3.35;3.05;;;6.30;99.90;;;;;;5022938;28;20643;-74
2023/03/27 03:03:52;;;;;;;3.33;2.53;;;6.30;99.90;;;;;;5037123;28;20566;-75
2023/03/27 03:06:19;;;;;;;4.20;2.72;;;6.20;99.90;;;;;;5033285;28;20506;-74
2023/03/27 03:08:45;;;;;;;3.05;2.85;;;6.20;99.90;;;;;;5024342;28;20652;-74
2023/03/27 03:11:13;;;;;;;2.63;2.50;;;6.30;99.90;;;;;;5033402;28;20250;-74
2023/03/27 03:13:39;;;;;;;2.47;2.35;;;6.30;99.90;;;;;;5023452;28;20187;-74
2023/03/27 03:16:07;;;;;;;2.50;2.40;;;6.30;99.90;;;;;;5040491;28;20181;-74
2023/03/27 03:18:33;;;;;;;2.70;2.50;;;6.30;99.90;;;;;;5024299;28;20728;-74
2023/03/27 03:20:59;;;;;;;2.72;2.53;;;6.20;99.90;;;;;;5041680;28;20238;-75
2023/03/27 03:23:25;;;;;;;3.13;2.40;;;6.30;99.90;;;;;;5038219;28;20208;-75
2023/03/27 03:25:55;;;;;;;2.42;2.33;;;6.20;99.90;;;;;;5031440;28;20176;-74
2023/03/27 03:28:21;;;;;;;2.50;2.40;;;6.20;99.90;;;;;;5027318;28;20181;-74
2023/03/27 03:30:49;;;;;;;4.13;3.35;;;6.10;99.90;;;;;;5026636;28;20263;-74
2023/03/27 03:33:16;;;;;;;2.28;2.17;;;6.10;99.90;;;;;;5028195;28;20209;-75
2023/03/27 03:35:47;;;;;;;2.70;2.50;;;6.20;99.90;;;;;;5035849;28;20180;-75
2023/03/27 03:38:14;;;;;;;2.67;2.50;;;6.20;99.90;;;;;;5034746;28;20198;-74
2023/03/27 03:40:40;;;;;;;3.20;2.70;;;6.10;99.90;;;;;;5030291;28;20215;-74
2023/03/27 03:43:06;;;;;;;2.90;2.60;;;6.00;99.90;;;;;;5036137;28;20721;-74
2023/03/27 03:45:31;;;;;;;3.10;2.90;;;6.00;99.90;;;;;;5034035;28;20176;-74
2023/03/27 03:47:57;;;;;;;3.45;3.15;;;6.00;99.90;;;;;;5033050;28;20188;-73
2023/03/27 03:50:23;;;;;;;3.72;3.45;;;6.00;99.90;;;;;;5024814;28;20178;-74
2023/03/27 03:52:48;;;;;;;3.17;2.97;;;5.90;99.90;;;;;;5046587;28;20199;-74
2023/03/27 03:55:15;;;;;;;2.17;2.08;;;5.80;99.90;;;;;;5042226;28;20203;-74
2023/03/27 03:57:45;;;;;;;2.08;1.88;;;5.60;99.90;;;;;;5041630;28;20897;-75
2023/03/27 04:00:12;;;;;;;1.13;1.13;;;5.50;99.90;;;;;;5041581;28;20558;-74
2023/03/27 04:02:40;;;;;;;1.10;1.10;;;5.40;99.90;;;;;;5037686;28;20689;-73
2023/03/27 04:05:06;;;;;;;1.98;1.00;;;5.30;99.90;;;;;;5045227;28;20180;-74
2023/03/27 04:07:31;;;;;;;0.90;0.90;;;5.20;99.90;;;;;;5048997;28;20199;-75
2023/03/27 04:10:00;;;;;;;1.15;1.05;;;5.10;99.90;;;;;;5046491;28;20687;-74
2023/03/27 04:12:26;;;;;;;1.08;1.08;;;5.00;99.90;;;;;;5030934;28;20620;-76
2023/03/27 04:14:53;;;;;;;1.15;1.15;;;4.90;99.90;;;;;;5039884;28;20332;-74
2023/03/27 04:17:19;;;;;;;0.90;0.90;;;4.90;99.90;;;;;;5041444;28;20272;-74
2023/03/27 04:19:45;;;;;;;1.15;1.15;;;4.80;99.90;;;;;;5043249;28;20195;-74
2023/03/27 04:22:12;;;;;;;0.80;0.80;;;4.80;99.90;;;;;;5040122;28;20201;-74
2023/03/27 04:24:38;;;;;;;2.15;0.90;;;4.70;99.90;;;;;;5039347;28;20260;-74
2023/03/27 04:27:04;;;;;;;0.82;0.82;;;4.60;99.90;;;;;;5054747;28;20258;-75
2023/03/27 04:29:30;;;;;;;1.38;1.27;;;4.70;99.90;;;;;;5040242;28;20182;-75
2023/03/27 04:31:56;;;;;;;0.98;0.98;;;4.70;99.90;;;;;;5027583;28;20200;-75
2023/03/27 04:34:23;;;;;;;1.02;1.02;;;4.60;99.90;;;;;;5047603;28;20176;-74
2023/03/27 04:36:49;;;;;;;1.10;1.10;;;4.50;99.90;;;;;;5041679;28;20197;-75
2023/03/27 04:39:16;;;;;;;1.45;1.38;;;4.40;99.90;;;;;;5039978;28;20663;-77
2023/03/27 04:41:48;;;;;;;1.10;1.10;;;4.30;99.90;;;;;;5030360;28;20208;-76
2023/03/27 04:44:17;;;;;;;2.88;1.33;;;4.20;99.90;;;;;;5030384;28;20201;-76
2023/03/27 04:46:49;;;;;;;1.77;1.60;;;4.20;99.90;;;;;;5039982;28;20562;-74
2023/03/27 04:49:17;;;;;;;2.38;1.63;;;4.10;99.90;;;;;;5037089;28;20184;-76
2023/03/27 04:51:46;;;;;;;2.53;1.63;;;4.00;99.90;;;;;;5026351;28;20193;-75
2023/03/27 04:54:12;;;;;;;1.48;1.40;;;3.80;99.90;;;;;;5025546;28;20688;-75
2023/03/27 04:56:40;;;;;;;1.85;1.50;;;3.80;99.90;;;;;;5030592;28;20179;-75
2023/03/27 04:59:06;;;;;;;3.63;1.85;;;3.80;99.90;;;;;;5021120;28;20219;-75
2023/03/27 05:01:32;;;;;;;2.15;2.00;;;3.80;99.90;;;;;;5048445;28;20274;-82
2023/03/27 05:04:01;;;;;;;1.92;1.75;;;3.80;99.90;;;;;;5032655;28;20203;-77
2023/03/27 05:06:27;;;;;;;2.58;2.17;;;3.80;99.90;;;;;;5033323;28;20187;-77
2023/03/27 05:08:52;;;;;;;3.08;2.80;;;3.70;99.90;;;;;;5037020;28;20591;-76
2023/03/27 05:11:18;;;;;;;2.53;2.05;;;3.70;99.90;;;;;;5034727;28;20204;-75
2023/03/27 05:13:44;;;;;;;2.08;1.98;;;3.60;99.90;;;;;;5037753;28;20172;-75
2023/03/27 05:16:10;;;;;;;3.67;2.45;;;3.60;99.90;;;;;;5026934;28;20181;-76
2023/03/27 05:18:37;;;;;;;2.45;2.25;;;3.60;99.90;;;;;;5018303;28;22782;-76
2023/03/27 05:21:03;;;;;;;2.97;1.98;;;3.70;99.90;;;;;;5042222;28;20705;-77
2023/03/27 05:23:29;;;;;;;2.17;1.70;;;3.70;99.90;;;;;;5029196;28;20220;-77
2023/03/27 05:25:55;;;;;;;3.17;2.13;;;3.70;99.90;;;;;;5041199;28;20183;-77
2023/03/27 05:28:21;;;;;;;2.03;1.92;;;3.70;99.90;;;;;;5030529;28;20195;-75
2023/03/27 05:30:48;;;;;;;5.05;2.53;;;3.70;99.90;;;;;;5026485;28;20316;-77
2023/03/27 05:33:15;;;;;;;2.40;2.20;;;3.70;99.90;;;;;;5032196;28;20208;-75
2023/03/27 05:35:41;;;;;;;2.60;2.40;;;3.70;99.90;;;;;;5034131;28;20185;-78
2023/03/27 05:38:07;;;;;;;3.13;2.25;;;3.70;99.90;;;;;;5028846;28;20648;-75
2023/03/27 05:40:33;;;;;;;2.33;2.10;;;3.70;99.90;;;;;;5024472;28;20191;-75
2023/03/27 05:43:00;;;;;;;1.98;1.83;;;3.80;99.90;;;;;;5028779;28;20293;-74
2023/03/27 05:45:26;;;;;;;3.97;2.13;;;3.80;99.90;;;;;;5032980;28;20213;-75
2023/03/27 05:47:56;;;;;;;1.88;1.83;;;3.70;99.90;;;;;;5019028;28;20232;-75
2023/03/27 05:50:25;;;;;;;2.13;1.92;;;3.80;99.90;;;;;;5018231;28;20691;-77
2023/03/27 05:53:10;;;;;;;3.50;2.20;;;3.80;99.90;;;;;;5011470;28;20209;-76
2023/03/27 05:55:39;;;;;;;2.05;1.60;;;3.90;99.90;;;;;;5021830;28;20656;-76
2023/03/27 05:58:08;;;;;;;3.45;2.20;;;3.80;99.90;;;;;;5023942;28;20274;-77
2023/03/27 06:00:35;;;;;;;2.55;2.35;;;3.80;99.90;;;;;;5015533;28;20587;-77
2023/03/27 06:03:02;;;;;;;1.85;1.75;;;3.90;99.90;;;;;;5033272;28;20209;-77
2023/03/27 06:05:28;;;;;;;2.33;2.13;;;3.90;99.90;;;;;;5032916;28;20679;-75
2023/03/27 06:07:58;;;;;;;2.33;2.22;;;3.90;99.90;;;;;;5017171;28;20172;-75
2023/03/27 06:10:26;;;;;;;3.53;2.30;;;3.90;99.90;;;;;;5019466;28;20232;-76
2023/03/27 06:13:03;;;;;;;2.05;1.92;;;3.90;99.90;;;;;;5015667;28;20200;-75
2023/03/27 06:15:30;;;;;;;2.42;2.08;;;3.90;99.90;;;;;;5015370;28;20177;-76
2023/03/27 06:17:56;;;;;;;2.10;1.92;;;3.90;99.90;;;;;;5036344;28;20279;-75
2023/03/27 06:20:23;;;;;;;2.53;1.90;;;3.90;99.90;;;;;;5018217;28;20279;-76
2023/03/27 06:23:00;;;;;;;2.22;2.13;;;3.90;99.90;;;;;;5028257;28;20706;-75
2023/03/27 06:25:30;;;;;;;2.20;2.00;;;4.00;99.90;;;;;;5028141;28;20182;-75
2023/03/27 06:27:56;;;;;;;3.33;2.13;;;4.10;99.90;;;;;;5031785;28;20185;-75
2023/03/27 06:30:24;;;;;;;1.70;1.60;;;4.20;99.90;;;;;;5030991;28;20686;-75
2023/03/27 06:32:58;;;;;;;3.00;2.42;;;4.30;99.90;;;;;;5036266;28;20208;-75
2023/03/27 06:35:27;;;;;;;2.17;2.00;;;4.40;99.90;;;;;;5045954;28;20175;-75
2023/03/27 06:37:54;;;;;;;2.17;2.08;;;4.50;99.90;;;;;;5028949;28;20290;-77
2023/03/27 06:40:22;;;;;;;2.13;1.92;;;4.50;99.90;;;;;;5042906;28;20301;-76
2023/03/27 06:43:02;;;;;;;2.85;2.65;;;4.50;99.90;;;;;;5038490;28;20200;-75
2023/03/27 06:45:31;;;;;;;2.30;2.20;;;4.50;99.90;;;;;;5037877;28;20236;-74
2023/03/27 06:47:59;;;;;;;2.63;2.50;;;4.40;99.90;;;;;;5030083;28;20192;-74
2023/03/27 06:50:26;;;;;;;2.75;2.53;;;4.50;99.90;;;;;;5036072;28;20659;-74
2023/03/27 06:52:52;;;;;;;3.95;3.00;;;4.50;99.90;;;;;;5042255;28;20283;-75
2023/03/27 06:55:20;;;;;;;2.60;2.40;;;4.60;99.90;;;;;;5030596;28;20316;-74
2023/03/27 06:57:51;;;;;;;2.53;2.42;;;4.40;99.90;;;;;;5030366;28;20595;-75
2023/03/27 07:00:21;;;;;;;2.33;2.13;;;4.40;99.90;;;;;;5028577;28;20188;-75
2023/03/27 07:02:48;;;;;;;2.13;2.00;;;4.30;99.90;;;;;;5040968;28;20235;-75
2023/03/27 07:05:15;;;;;;;2.80;2.15;;;4.30;99.90;;;;;;5029629;28;20219;-74
2023/03/27 07:07:41;;;;;;;2.55;2.40;;;4.40;99.90;;;;;;5026215;28;20180;-76
2023/03/27 07:10:08;;;;;;;2.20;2.00;;;4.40;99.90;;;;;;5030987;28;20543;-76
2023/03/27 07:12:34;;;;;;;2.50;2.33;;;4.50;99.90;;;;;;5025427;28;20208;-77
2023/03/27 07:15:00;;;;;;;4.07;2.42;;;4.50;99.90;;;;;;5029679;28;20172;-76
2023/03/27 07:17:25;;;;;;;2.38;2.17;;;4.50;99.90;;;;;;5032611;28;20184;-76
2023/03/27 07:19:52;;;;;;;3.45;2.13;;;4.50;99.90;;;;;;5042054;28;20187;-76
2023/03/27 07:22:18;;;;;;;2.58;2.38;;;4.60;99.90;;;;;;5039921;28;20215;-76
2023/03/27 07:24:43;;;;;;;4.03;2.30;;;4.40;99.90;;;;;;5023724;28;20288;-76
2023/03/27 07:27:09;;;;;;;2.63;2.42;;;4.50;99.90;;;;;;5028554;28;20180;-77
2023/03/27 07:29:36;;;;;;;2.90;2.70;;;4.50;99.90;;;;;;5043920;28;20618;-77
2023/03/27 07:32:02;;;;;;;2.92;2.35;;;4.50;99.90;;;;;;5038163;28;20206;-77
2023/03/27 07:34:28;;;;;;;3.30;3.10;;;4.60;99.90;;;;;;5031609;28;20180;-76
2023/03/27 07:36:56;;;;;;;2.80;2.55;;;4.60;99.90;;;;;;5043189;28;20190;-76
2023/03/27 07:39:22;;;;;;;3.97;2.33;;;4.70;99.90;;;;;;5032031;28;20548;-76
2023/03/27 07:41:47;;;;;;;2.80;2.60;;;5.00;99.90;;;;;;5035507;28;20234;-77
2023/03/27 07:44:13;;;;;;;3.08;2.42;;;5.30;99.90;;;;;;5038422;28;20560;-76
2023/03/27 07:46:38;;;;;;;1.83;1.67;;;5.60;99.90;;;;;;5033857;28;20179;-75
2023/03/27 07:49:04;;;;;;;2.53;2.35;;;5.60;99.90;;;;;;5035179;28;20585;-76
2023/03/27 07:51:30;;;;;;;1.92;1.83;;;5.60;99.90;;;;;;5042630;28;20196;-76
2023/03/27 07:53:57;;;;;;;4.88;2.72;;;5.60;99.90;;;;;;5037051;28;20592;-77
2023/03/27 07:56:23;;;;;;;2.17;2.08;;;5.60;99.90;;;;;;5037452;28;20175;-77
2023/03/27 07:58:50;;;;;;;3.42;2.50;;;5.40;99.90;;;;;;5038247;28;20179;-76
2023/03/27 08:01:16;;;;;;;2.95;2.08;;;5.40;99.90;;;;;;5041861;28;20204;-77
2023/03/27 08:03:42;;;;;;;4.18;2.80;;;5.30;99.90;;;;;;5033009;28;20222;-77
2023/03/27 08:06:08;;;;;;;3.55;2.50;;;5.10;99.90;;;;;;5032946;28;20189;-77
2023/03/27 08:08:33;;;;;;;5.63;2.85;;;5.00;99.90;;;;;;5046998;28;20183;-77
2023/03/27 08:11:01;;;;;;;3.80;2.80;;;5.20;99.90;;;;;;5036597;28;20181;-77
2023/03/27 08:13:27;;;;;;;2.97;2.72;;;5.30;99.90;;;;;;5026937;28;20180;-75
2023/03/27 08:16:11;;;;;;;4.25;2.30;;;5.50;99.90;;;;;;5037473;28;20199;-76
2023/03/27 08:18:37;;;;;;;2.03;1.92;;;5.70;99.90;;;;;;5030837;28;20176;-77
2023/03/27 08:21:05;;;;;;;3.10;2.70;;;5.80;99.90;;;;;;5035753;28;20543;-77
2023/03/27 08:23:32;;;;;;;2.17;1.95;;;6.00;99.90;;;;;;5040101;28;20231;-77
2023/03/27 08:26:02;;;;;;;2.67;2.42;;;6.20;99.90;;;;;;5038690;28;20174;-76
2023/03/27 08:28:29;;;;;;;2.20;2.10;;;6.60;99.90;;;;;;5025389;28;20167;-77
2023/03/27 08:30:55;;;;;;;6.53;2.22;;;7.00;99.90;;;;;;5037287;28;20181;-77
2023/03/27 08:33:21;;;;;;;2.05;1.83;;;7.10;99.90;;;;;;5033408;28;20707;-77
2023/03/27 08:35:48;;;;;;;2.03;1.85;;;7.10;99.90;;;;;;5036748;28;20215;-77
2023/03/27 08:38:14;;;;;;;3.22;2.42;;;7.00;99.90;;;;;;5032897;28;20184;-77
2023/03/27 08:40:46;;;;;;;3.17;2.50;;;6.80;99.90;;;;;;5047640;28;20263;-76
2023/03/27 08:43:17;;;;;;;3.17;2.10;;;6.70;99.90;;;;;;5040766;28;20196;-76
2023/03/27 08:45:53;;;;;;;2.20;2.00;;;7.00;99.90;;;;;;5040237;28;20185;-77
2023/03/27 08:48:26;;;;;;;2.08;1.85;;;7.00;99.90;;;;;;5037490;28;20192;-76
2023/03/27 08:51:05;;;;;;;3.35;3.05;;;7.10;99.90;;;;;;5032351;28;20208;-76
2023/03/27 08:53:40;;;;;;;2.47;1.83;;;7.50;99.90;;;;;;5040094;28;20262;-76
2023/03/27 08:56:19;;;;;;;2.72;1.85;;;8.10;99.90;;;;;;5037158;28;20180;-76
2023/03/27 08:58:45;;;;;;;2.03;1.92;;;8.40;99.90;;;;;;5041057;28;20258;-76
2023/03/27 09:01:29;;;;;;;2.35;2.20;;;8.10;99.90;;;;;;5042685;28;20184;-75
2023/03/27 09:04:04;;;;;;;3.08;1.65;;;7.90;99.90;;;;;;5026467;28;20213;-75
2023/03/27 09:06:51;;;;;;;3.10;2.00;;;7.70;99.90;;;;;;5042247;28;20674;-77
2023/03/27 09:09:51;;;;;;;2.20;2.10;;;7.40;99.90;;;;;;5037574;28;20348;-77
2023/03/27 09:12:35;;;;;;;1.88;1.75;;;7.80;99.90;;;;;;5038917;28;20201;-77
2023/03/27 09:15:10;;;;;;;4.43;2.10;;;8.70;99.90;;;;;;5037178;28;20303;-76
2023/03/27 09:17:48;;;;;;;2.00;1.90;;;9.30;99.90;;;;;;5035437;28;20183;-76
2023/03/27 09:20:19;;;;;;;1.73;1.60;;;9.40;99.90;;;;;;5043733;28;20344;-76
2023/03/27 09:22:51;;;;;;;2.50;1.63;;;9.30;99.90;;;;;;5047786;28;20192;-76
2023/03/27 09:25:42;;;;;;;1.60;1.50;;;9.40;99.90;;;;;;5042653;28;20203;-77
2023/03/27 09:28:34;;;;;;;1.75;1.65;;;9.80;99.90;;;;;;5036199;28;20200;-76
2023/03/27 09:31:34;;;;;;;2.90;1.77;;;10.80;97.90;;;;;;5040752;28;20173;-76
2023/03/27 09:34:05;;;;;;;2.00;1.75;;;12.80;95.70;;;;;;5036831;28;20558;-76
2023/03/27 09:36:31;;;;;;;1.52;1.40;;;14.40;92.50;;;;;;5023969;28;20187;-76
2023/03/27 09:39:04;;;;;;;2.05;1.52;;;15.70;85.30;;;;;;5023931;28;20191;-77
2023/03/27 09:41:48;;;;;;;1.60;1.38;;;16.10;79.40;;;;;;5033383;28;20204;-76
2023/03/27 09:44:28;;;;;;;2.17;1.40;;;16.50;70.50;;;;;;5043736;28;20261;-77
2023/03/27 09:47:14;;;;;;;1.70;1.40;;;16.40;71.70;;;;;;5034722;28;20187;-76
2023/03/27 09:49:46;;;;;;;1.50;1.23;;;16.10;71.60;;;;;;5035355;28;20176;-75
2023/03/27 09:52:37;;;;;;;1.58;1.48;;;16.70;73.60;;;;;;5043659;28;20200;-76
2023/03/27 09:55:29;;;;;;;1.42;1.33;;;16.20;67.50;;;;;;5035369;28;20176;-77
2023/03/27 09:58:11;;;;;;;1.63;1.00;;;15.80;68.30;;;;;;5035019;28;20617;-76
2023/03/27 10:00:37;;;;;;;2.28;1.38;;;15.90;67.30;;;;;;5031478;28;20245;-75
2023/03/27 10:03:14;;;;;;;1.35;1.20;;;14.70;65.50;;;;;;5038127;28;20683;-76
2023/03/27 10:05:41;;;;;;;2.38;1.58;;;14.50;66.50;;;;;;5038821;28;20527;-78
2023/03/27 10:08:45;;;;;;;1.20;1.20;;;13.00;68.00;;;;;;5031559;28;20173;-75
2023/03/27 10:11:16;;;;;;;1.27;1.17;;;11.40;69.10;;;;;;5021584;28;20251;-75
2023/03/27 10:13:46;;;;;;;1.73;1.05;;;10.60;70.00;;;;;;5045471;28;20470;-75
2023/03/27 10:16:16;;;;;;;1.48;1.00;;;12.40;63.50;;;;;;5040252;28;20259;-75
2023/03/27 10:18:45;;;;;;;1.08;0.90;;;14.80;61.60;;;;;;5036700;28;20263;-75
2023/03/27 10:21:18;;;;;;;0.85;0.85;;;17.70;55.70;;;;;;5040109;28;20188;-76
2023/03/27 10:23:48;;;;;;;1.00;1.00;;;20.10;51.80;;;;;;5030752;28;20291;-76
2023/03/27 10:26:20;;;;;;;1.00;1.00;;;20.60;46.70;;;;;;5040021;28;20250;-77
2023/03/27 10:28:51;;;;;;;1.05;1.05;;;18.60;47.50;;;;;;5048443;28;20180;-81
2023/03/27 10:31:36;;;;;;;1.10;0.80;;;16.60;52.10;;;;;;5041923;28;20227;-76
2023/03/27 10:34:05;;;;;;;1.30;1.30;;;14.30;53.80;;;;;;5039296;28;20188;-76
2023/03/27 10:36:36;;;;;;;2.10;1.20;;;12.40;60.90;;;;;;5035277;28;20180;-76
2023/03/27 10:39:10;;;;;;;1.30;1.20;;;11.10;69.00;;;;;;5034518;28;20247;-75
2023/03/27 10:41:37;;;;;;;1.25;1.15;;;10.20;71.40;;;;;;5026958;28;20254;-75
2023/03/27 10:44:16;;;;;;;1.77;1.08;;;10.00;71.90;;;;;;5027488;28;20632;-75
2023/03/27 10:46:43;;;;;;;1.52;1.42;;;11.10;73.70;;;;;;5026605;28;20180;-75
2023/03/27 10:49:39;;;;;;;0.98;0.95;;;14.20;66.80;;;;;;5023911;28;20184;-75
2023/03/27 10:52:23;;;;;;;0.70;0.70;;;17.00;55.10;;;;;;5026139;28;20675;-75
2023/03/27 10:55:14;;;;;;;1.40;0.90;;;19.30;53.70;;;;;;5030272;28;20670;-76
2023/03/27 10:57:44;;;;;;;1.17;1.10;;;21.10;50.00;;;;;;5015709;28;20173;-76
2023/03/27 11:00:21;;;;;;;1.65;1.45;;;21.10;47.00;;;;;;5027531;28;20177;-76
2023/03/27 11:03:11;;;;;;;1.48;1.38;;;19.60;46.30;;;;;;5029441;28;20226;-75
2023/03/27 11:05:42;;;;;;;3.17;1.17;;;17.60;46.90;;;;;;5030234;28;20173;-75
2023/03/27 11:08:07;;;;;;;0.98;0.98;;;15.30;51.20;;;;;;5019828;28;20580;-77
2023/03/27 11:10:39;;;;;;;1.10;1.00;;;13.70;53.90;;;;;;5027188;28;20184;-75
2023/03/27 11:13:16;;;;;;;1.23;1.00;;;12.90;54.70;;;;;;5026637;28;20204;-75
2023/03/27 11:15:53;;;;;;;0.80;0.80;;;12.80;54.00;;;;;;5033824;28;20566;-76
2023/03/27 11:18:29;;;;;;;0.80;0.80;;;14.90;52.80;;;;;;5027669;28;20179;-75
2023/03/27 11:20:59;;;;;;;1.13;1.02;;;15.50;48.10;;;;;;5030541;28;20210;-75
2023/03/27 11:23:46;;;;;;;1.33;0.85;;;15.00;51.40;;;;;;5027837;28;20204;-76
2023/03/27 11:26:15;;;;;;;1.70;1.10;;;14.40;49.60;;;;;;5036195;28;20191;-76
2023/03/27 11:29:02;;;;;;;1.35;0.95;;;13.50;52.80;;;;;;5040893;28;20578;-75
2023/03/27 11:31:56;;;;;;;1.77;1.00;;;12.50;55.40;;;;;;5028915;28;20686;-76
2023/03/27 11:34:33;;;;;;;0.68;0.68;;;11.40;61.40;;;;;;5036631;28;20248;-75
2023/03/27 11:37:19;;;;;;;0.80;0.80;;;10.90;59.00;;;;;;5047250;28;20713;-74
2023/03/27 11:39:53;;;;;;;0.77;0.65;;;12.60;57.60;;;;;;5045801;28;20183;-75
2023/03/27 11:42:28;;;;;;;1.67;1.02;;;15.70;53.60;;;;;;5047803;28;20249;-75
2023/03/27 11:44:55;;;;;;;1.60;0.80;;;18.20;48.90;;;;;;5037077;28;20212;-75
2023/03/27 11:47:36;;;;;;;1.75;1.10;;;18.80;46.90;;;;;;5027743;28;20248;-75
2023/03/27 11:50:19;;;;;;;2.15;1.00;;;17.40;47.70;;;;;;5032156;28;20602;-75
2023/03/27 11:52:51;;;;;;;0.88;0.88;;;15.60;49.30;;;;;;5023029;28;20286;-76
2023/03/27 11:55:32;;;;;;;2.22;1.05;;;14.00;52.00;;;;;;5021026;28;20173;-75
2023/03/27 11:58:32;;;;;;;1.35;1.25;;;12.30;55.10;;;;;;5040365;28;20225;-75
2023/03/27 12:01:16;;;;;;;0.93;0.93;;;11.40;58.70;;;;;;5034438;28;20172;-76
2023/03/27 12:03:42;;;;;;;1.75;0.70;;;11.50;59.90;;;;;;5034476;28;20660;-76
2023/03/27 12:06:15;;;;;;;2.20;0.88;;;11.70;56.00;;;;;;5040562;28;20180;-75
2023/03/27 12:08:56;;;;;;;1.42;1.05;;;11.00;56.50;;;;;;5039297;28;20274;-75
2023/03/27 12:11:24;;;;;;;1.80;0.95;;;10.20;61.00;;;;;;5044016;28;20627;-75
2023/03/27 12:13:59;;;;;;;0.80;0.80;;;11.10;61.90;;;;;;5037526;28;20211;-75
2023/03/27 12:16:39;;;;;;;2.20;0.80;;;13.60;57.90;;;;;;5030619;28;20198;-76
2023/03/27 12:19:21;;;;;;;1.85;0.98;;;15.10;52.60;;;;;;5039607;28;20188;-76
2023/03/27 12:22:09;;;;;;;1.00;0.90;;;16.20;54.10;;;;;;5023236;28;20200;-76
2023/03/27 12:24:48;;;;;;;1.30;1.13;;;18.80;50.60;;;;;;5036215;28;20291;-76
2023/03/27 12:27:41;;;;;;;1.05;0.80;;;19.70;43.30;;;;;;5029767;28;20234;-77
2023/03/27 12:30:12;;;;;;;0.88;0.88;;;19.80;43.50;;;;;;5025253;28;20653;-76
2023/03/27 12:32:59;;;;;;;0.75;0.75;;;19.60;43.10;;;;;;5038184;28;20229;-77
2023/03/27 12:35:28;;;;;;;0.88;0.80;;;19.80;42.50;;;;;;5044992;28;20175;-76
2023/03/27 12:38:09;;;;;;;1.27;0.57;;;20.40;41.40;;;;;;5031067;28;20181;-75
2023/03/27 12:40:57;;;;;;;1.67;1.00;;;19.60;41.50;;;;;;5041357;28;20295;-76
2023/03/27 12:43:28;;;;;;;0.60;0.60;;;17.20;45.90;;;;;;5046656;28;20200;-76
2023/03/27 12:46:13;;;;;;;3.80;1.05;;;15.30;47.90;;;;;;5033516;28;20172;-75
2023/03/27 12:48:56;;;;;;;1.77;1.05;;;13.90;52.60;;;;;;5029261;28;20188;-74
2023/03/27 12:51:36;;;;;;;0.93;0.93;;;13.90;55.00;;;;;;5035020;28;20285;-74
2023/03/27 12:54:27;;;;;;;1.38;1.10;;;15.70;52.70;;;;;;5029239;28;20188;-75
2023/03/27 12:57:15;;;;;;;1.20;1.10;;;16.70;50.90;;;;;;5038711;28;20251;-76
2023/03/27 12:59:51;;;;;;;1.10;1.00;;;17.50;50.00;;;;;;5014510;28;20193;-77
2023/03/27 13:02:29;;;;;;;1.17;0.77;;;18.20;50.10;;;;;;5037325;28;20702;-78
2023/03/27 13:05:25;;;;;;;0.65;0.65;;;19.80;47.60;;;;;;5014638;28;20212;-75
2023/03/27 13:08:19;;;;;;;0.98;0.63;;;21.20;43.20;;;;;;5014918;28;21140;-75
2023/03/27 13:10:55;;;;;;;0.90;0.68;;;22.40;41.80;;;;;;5013370;28;20177;-76
2023/03/27 13:13:35;;;;;;;0.82;0.82;;;22.40;42.00;;;;;;5020224;28;20678;-75
2023/03/27 13:16:22;;;;;;;1.25;0.60;;;21.90;41.20;;;;;;5029062;28;20196;-75
2023/03/27 13:19:21;;;;;;;0.77;0.77;;;21.00;41.60;;;;;;5016514;28;20873;-76
2023/03/27 13:22:16;;;;;;;0.65;0.63;;;20.20;43.30;;;;;;5016849;28;20212;-77
2023/03/27 13:25:11;;;;;;;0.63;0.63;;;18.60;44.20;;;;;;5013028;28;20278;-76